sensor_id;sensor_type;location;lat;lon;timestamp;pressure;altitude;pressure_sealevel;temperature;humidity
54308;BME280;40208;39.778;2.710;2023-08-30T00:02:15;100323.78;;;17.37;100.00
54308;BME280;40208;39.778;2.710;2023-08-30T00:05:02;100697.53;;;19.63;100.00
54308;BME280;40208;39.778;2.710;2023-08-30T00:07:47;100479.72;;;18.11;100.00
54308;BME280;40208;39.778;2.710;2023-08-30T00:10:32;100447.66;;;17.87;100.00
54308;BME280;40208;39.778;2.710;2023-08-30T00:13:17;100509.91;;;18.47;100.00
54308;BME280;40208;39.778;2.710;2023-08-30T00:16:01;100898.56;;;20.82;100.00
54308;BME280;40208;39.778;2.710;2023-08-30T00:18:47;100489.84;;;18.19;100.00
54308;BME280;40208;39.778;2.710;2023-08-30T00:21:32;100567.75;;;18.62;100.00
54308;BME280;40208;39.778;2.710;2023-08-30T00:24:17;100444.19;;;18.08;100.00
54308;BME280;40208;39.778;2.710;2023-08-30T00:27:02;100514.56;;;18.45;100.00
54308;BME280;40208;39.778;2.710;2023-08-30T00:29:47;100444.34;;;17.72;100.00
54308;BME280;40208;39.778;2.710;2023-08-30T00:32:32;100314.75;;;17.27;100.00
54308;BME280;40208;39.778;2.710;2023-08-30T00:35:17;100508.44;;;18.43;100.00
54308;BME280;40208;39.778;2.710;2023-08-30T00:38:02;100566.91;;;18.62;100.00
54308;BME280;40208;39.778;2.710;2023-08-30T00:40:47;100894.94;;;20.71;100.00
54308;BME280;40208;39.778;2.710;2023-08-30T00:43:32;100881.38;;;20.62;100.00
54308;BME280;40208;39.778;2.710;2023-08-30T00:46:17;100631.03;;;18.89;100.00
54308;BME280;40208;39.778;2.710;2023-08-30T00:49:03;100557.19;;;18.50;100.00
54308;BME280;40208;39.778;2.710;2023-08-30T00:51:49;100791.25;;;19.80;100.00
54308;BME280;40208;39.778;2.710;2023-08-30T00:54:34;100894.34;;;20.68;100.00
54308;BME280;40208;39.778;2.710;2023-08-30T00:57:19;100879.69;;;20.61;100.00
54308;BME280;40208;39.778;2.710;2023-08-30T01:00:05;100594.91;;;18.59;100.00
54308;BME280;40208;39.778;2.710;2023-08-30T01:02:50;100713.47;;;19.55;100.00
54308;BME280;40208;39.778;2.710;2023-08-30T01:05:35;100780.03;;;19.96;100.00
54308;BME280;40208;39.778;2.710;2023-08-30T01:08:20;100611.97;;;18.70;100.00
54308;BME280;40208;39.778;2.710;2023-08-30T01:11:21;100439.69;;;17.74;100.00
54308;BME280;40208;39.778;2.710;2023-08-30T01:14:13;100867.81;;;20.52;100.00
54308;BME280;40208;39.778;2.710;2023-08-30T01:16:59;100467.28;;;17.76;100.00
54308;BME280;40208;39.778;2.710;2023-08-30T01:20:00;100770.03;;;19.87;100.00
54308;BME280;40208;39.778;2.710;2023-08-30T01:22:55;100451.91;;;18.01;100.00
54308;BME280;40208;39.778;2.710;2023-08-30T01:25:57;100842.69;;;20.30;100.00
54308;BME280;40208;39.778;2.710;2023-08-30T01:28:48;100872.28;;;20.42;100.00
54308;BME280;40208;39.778;2.710;2023-08-30T01:31:35;100307.09;;;17.00;100.00
54308;BME280;40208;39.778;2.710;2023-08-30T01:34:21;100547.41;;;18.49;100.00
54308;BME280;40208;39.778;2.710;2023-08-30T01:37:07;100437.16;;;17.84;100.00
54308;BME280;40208;39.778;2.710;2023-08-30T01:39:56;100864.72;;;20.36;100.00
54308;BME280;40208;39.778;2.710;2023-08-30T01:42:42;100608.34;;;18.48;100.00
54308;BME280;40208;39.778;2.710;2023-08-30T01:45:29;100420.84;;;17.42;100.00
54308;BME280;40208;39.778;2.710;2023-08-30T01:48:16;100641.75;;;19.00;100.00
54308;BME280;40208;39.778;2.710;2023-08-30T01:51:03;100615.28;;;18.84;100.00
54308;BME280;40208;39.778;2.710;2023-08-30T01:53:49;100567.34;;;18.23;100.00
54308;BME280;40208;39.778;2.710;2023-08-30T01:56:34;100265.63;;;16.70;100.00
54308;BME280;40208;39.778;2.710;2023-08-30T01:59:19;100325.13;;;16.86;100.00
54308;BME280;40208;39.778;2.710;2023-08-30T02:02:04;100250.53;;;16.35;100.00
54308;BME280;40208;39.778;2.710;2023-08-30T02:04:49;100262.22;;;16.68;100.00
54308;BME280;40208;39.778;2.710;2023-08-30T02:07:40;100560.63;;;18.29;100.00
54308;BME280;40208;39.778;2.710;2023-08-30T02:10:40;100319.00;;;16.73;100.00
54308;BME280;40208;39.778;2.710;2023-08-30T02:13:27;100305.03;;;16.92;100.00
54308;BME280;40208;39.778;2.710;2023-08-30T02:16:13;100336.72;;;17.09;100.00
54308;BME280;40208;39.778;2.710;2023-08-30T02:18:59;100340.34;;;17.08;100.00
54308;BME280;40208;39.778;2.710;2023-08-30T02:21:45;100308.31;;;16.84;100.00
54308;BME280;40208;39.778;2.710;2023-08-30T02:24:30;100577.63;;;18.30;100.00
54308;BME280;40208;39.778;2.710;2023-08-30T02:27:15;100360.97;;;17.08;100.00
54308;BME280;40208;39.778;2.710;2023-08-30T02:30:00;100248.34;;;16.63;100.00
54308;BME280;40208;39.778;2.710;2023-08-30T02:32:45;100537.81;;;18.12;100.00
54308;BME280;40208;39.778;2.710;2023-08-30T02:35:29;100471.81;;;17.76;100.00
54308;BME280;40208;39.778;2.710;2023-08-30T02:38:14;100443.63;;;17.48;100.00
54308;BME280;40208;39.778;2.710;2023-08-30T02:40:59;100221.41;;;16.42;100.00
54308;BME280;40208;39.778;2.710;2023-08-30T02:43:44;100225.91;;;16.41;100.00
54308;BME280;40208;39.778;2.710;2023-08-30T02:46:29;100836.06;;;19.81;100.00
54308;BME280;40208;39.778;2.710;2023-08-30T02:49:13;100583.69;;;18.54;100.00
54308;BME280;40208;39.778;2.710;2023-08-30T02:51:58;100273.88;;;16.44;100.00
54308;BME280;40208;39.778;2.710;2023-08-30T02:54:43;100313.19;;;16.90;100.00
54308;BME280;40208;39.778;2.710;2023-08-30T02:57:29;100680.50;;;19.09;100.00
54308;BME280;40208;39.778;2.710;2023-08-30T03:00:14;100275.03;;;16.64;100.00
54308;BME280;40208;39.778;2.710;2023-08-30T03:03:00;100310.13;;;16.84;100.00
54308;BME280;40208;39.778;2.710;2023-08-30T03:05:45;100562.25;;;17.98;100.00
54308;BME280;40208;39.778;2.710;2023-08-30T03:08:30;100545.75;;;17.80;100.00
54308;BME280;40208;39.778;2.710;2023-08-30T03:11:17;100588.38;;;18.30;100.00
54308;BME280;40208;39.778;2.710;2023-08-30T03:14:05;100813.69;;;19.69;100.00
54308;BME280;40208;39.778;2.710;2023-08-30T03:16:50;100434.84;;;17.34;100.00
54308;BME280;40208;39.778;2.710;2023-08-30T03:19:34;100171.31;;;15.86;100.00
54308;BME280;40208;39.778;2.710;2023-08-30T03:22:19;100273.84;;;16.22;100.00
54308;BME280;40208;39.778;2.710;2023-08-30T03:25:05;100476.69;;;17.37;100.00
54308;BME280;40208;39.778;2.710;2023-08-30T03:27:50;100436.19;;;17.06;100.00
54308;BME280;40208;39.778;2.710;2023-08-30T03:30:35;100250.75;;;16.21;100.00
54308;BME280;40208;39.778;2.710;2023-08-30T03:33:19;100187.78;;;15.93;100.00
54308;BME280;40208;39.778;2.710;2023-08-30T03:36:04;100497.06;;;17.40;100.00
54308;BME280;40208;39.778;2.710;2023-08-30T03:38:49;100415.75;;;16.81;100.00
54308;BME280;40208;39.778;2.710;2023-08-30T03:41:35;100612.81;;;18.15;100.00
54308;BME280;40208;39.778;2.710;2023-08-30T03:44:19;100349.59;;;16.82;100.00
54308;BME280;40208;39.778;2.710;2023-08-30T03:47:05;100344.53;;;16.54;100.00
54308;BME280;40208;39.778;2.710;2023-08-30T03:49:49;100387.78;;;16.97;100.00
54308;BME280;40208;39.778;2.710;2023-08-30T03:52:34;100237.91;;;16.02;100.00
54308;BME280;40208;39.778;2.710;2023-08-30T03:55:19;100376.31;;;16.48;100.00
54308;BME280;40208;39.778;2.710;2023-08-30T03:58:05;100776.63;;;18.84;100.00
54308;BME280;40208;39.778;2.710;2023-08-30T04:00:50;100174.78;;;15.64;100.00
54308;BME280;40208;39.778;2.710;2023-08-30T04:03:35;100209.88;;;15.59;100.00
54308;BME280;40208;39.778;2.710;2023-08-30T04:06:21;100770.59;;;18.70;100.00
54308;BME280;40208;39.778;2.710;2023-08-30T04:09:06;100093.53;;;14.94;100.00
54308;BME280;40208;39.778;2.710;2023-08-30T04:11:51;100384.09;;;16.40;100.00
54308;BME280;40208;39.778;2.710;2023-08-30T04:14:36;100381.00;;;16.68;100.00
54308;BME280;40208;39.778;2.710;2023-08-30T04:17:20;100402.25;;;16.47;100.00
54308;BME280;40208;39.778;2.710;2023-08-30T04:20:06;100281.72;;;15.77;100.00
54308;BME280;40208;39.778;2.710;2023-08-30T04:22:51;100400.91;;;16.53;100.00
54308;BME280;40208;39.778;2.710;2023-08-30T04:25:38;100581.91;;;17.87;100.00
54308;BME280;40208;39.778;2.710;2023-08-30T04:28:22;100490.91;;;17.04;100.00
54308;BME280;40208;39.778;2.710;2023-08-30T04:31:07;100600.34;;;17.92;100.00
54308;BME280;40208;39.778;2.710;2023-08-30T04:33:52;100217.91;;;15.59;100.00
54308;BME280;40208;39.778;2.710;2023-08-30T04:36:39;100511.00;;;17.09;100.00
54308;BME280;40208;39.778;2.710;2023-08-30T04:39:24;100596.53;;;17.83;100.00
54308;BME280;40208;39.778;2.710;2023-08-30T04:42:09;100388.16;;;16.21;100.00
54308;BME280;40208;39.778;2.710;2023-08-30T04:44:54;100329.53;;;16.05;100.00
54308;BME280;40208;39.778;2.710;2023-08-30T04:47:40;100437.81;;;16.61;100.00
54308;BME280;40208;39.778;2.710;2023-08-30T04:50:27;100481.50;;;17.09;100.00
54308;BME280;40208;39.778;2.710;2023-08-30T04:53:12;100361.56;;;16.07;100.00
54308;BME280;40208;39.778;2.710;2023-08-30T04:55:57;100643.34;;;17.79;100.00
54308;BME280;40208;39.778;2.710;2023-08-30T04:58:42;100096.44;;;14.67;100.00
54308;BME280;40208;39.778;2.710;2023-08-30T05:01:27;100184.69;;;15.26;100.00
54308;BME280;40208;39.778;2.710;2023-08-30T05:04:12;100815.63;;;19.01;100.00
54308;BME280;40208;39.778;2.710;2023-08-30T05:06:57;100519.34;;;16.93;100.00
54308;BME280;40208;39.778;2.710;2023-08-30T05:09:42;100716.59;;;18.28;100.00
54308;BME280;40208;39.778;2.710;2023-08-30T05:12:27;100208.53;;;15.30;100.00
54308;BME280;40208;39.778;2.710;2023-08-30T05:15:11;100339.84;;;15.75;100.00
54308;BME280;40208;39.778;2.710;2023-08-30T05:17:57;100468.38;;;16.58;100.00
54308;BME280;40208;39.778;2.710;2023-08-30T05:20:42;100430.19;;;16.67;100.00
54308;BME280;40208;39.778;2.710;2023-08-30T05:23:27;100239.84;;;15.27;100.00
54308;BME280;40208;39.778;2.710;2023-08-30T05:26:12;100595.16;;;17.66;100.00
54308;BME280;40208;39.778;2.710;2023-08-30T05:29:02;100325.38;;;15.77;100.00
54308;BME280;40208;39.778;2.710;2023-08-30T05:31:47;100243.94;;;15.33;100.00
54308;BME280;40208;39.778;2.710;2023-08-30T05:34:32;100748.38;;;18.56;100.00
54308;BME280;40208;39.778;2.710;2023-08-30T05:37:21;100883.47;;;19.05;100.00
54308;BME280;40208;39.778;2.710;2023-08-30T05:40:09;100282.66;;;15.52;100.00
54308;BME280;40208;39.778;2.710;2023-08-30T05:42:54;100521.53;;;17.24;100.00
54308;BME280;40208;39.778;2.710;2023-08-30T05:45:39;100348.59;;;16.25;100.00
54308;BME280;40208;39.778;2.710;2023-08-30T05:48:24;100328.59;;;16.06;100.00
54308;BME280;40208;39.778;2.710;2023-08-30T05:51:09;100270.34;;;15.25;100.00
54308;BME280;40208;39.778;2.710;2023-08-30T05:53:54;100237.84;;;15.18;100.00
54308;BME280;40208;39.778;2.710;2023-08-30T05:56:39;100185.69;;;14.89;100.00
54308;BME280;40208;39.778;2.710;2023-08-30T05:59:24;100362.84;;;16.01;100.00
54308;BME280;40208;39.778;2.710;2023-08-30T06:02:09;100896.34;;;19.13;100.00
54308;BME280;40208;39.778;2.710;2023-08-30T06:04:55;100396.34;;;16.31;100.00
54308;BME280;40208;39.778;2.710;2023-08-30T06:07:40;100376.72;;;15.95;100.00
54308;BME280;40208;39.778;2.710;2023-08-30T06:10:25;100619.69;;;17.73;100.00
54308;BME280;40208;39.778;2.710;2023-08-30T06:13:10;100478.38;;;16.56;100.00
54308;BME280;40208;39.778;2.710;2023-08-30T06:15:54;100350.00;;;16.06;100.00
54308;BME280;40208;39.778;2.710;2023-08-30T06:18:39;100559.91;;;17.24;100.00
54308;BME280;40208;39.778;2.710;2023-08-30T06:21:26;100641.28;;;17.71;100.00
54308;BME280;40208;39.778;2.710;2023-08-30T06:24:11;100579.78;;;17.68;100.00
54308;BME280;40208;39.778;2.710;2023-08-30T06:26:56;100318.03;;;15.92;100.00
54308;BME280;40208;39.778;2.710;2023-08-30T06:29:41;100535.72;;;17.37;100.00
54308;BME280;40208;39.778;2.710;2023-08-30T06:32:31;100368.81;;;16.29;100.00
54308;BME280;40208;39.778;2.710;2023-08-30T06:35:16;100505.91;;;17.17;100.00
54308;BME280;40208;39.778;2.710;2023-08-30T06:38:01;100223.56;;;15.43;100.00
54308;BME280;40208;39.778;2.710;2023-08-30T06:40:46;100400.91;;;16.53;100.00
54308;BME280;40208;39.778;2.710;2023-08-30T06:43:31;100300.34;;;15.78;100.00
54308;BME280;40208;39.778;2.710;2023-08-30T06:46:18;100394.25;;;16.59;100.00
54308;BME280;40208;39.778;2.710;2023-08-30T06:49:06;100641.50;;;18.04;100.00
54308;BME280;40208;39.778;2.710;2023-08-30T06:51:57;100903.75;;;19.54;100.00
54308;BME280;40208;39.778;2.710;2023-08-30T06:54:42;100666.50;;;18.38;100.00
54308;BME280;40208;39.778;2.710;2023-08-30T06:57:31;100481.88;;;17.27;100.00
54308;BME280;40208;39.778;2.710;2023-08-30T07:00:17;100183.50;;;15.31;100.00
54308;BME280;40208;39.778;2.710;2023-08-30T07:03:03;100461.41;;;17.04;100.00
54308;BME280;40208;39.778;2.710;2023-08-30T07:05:52;100292.09;;;15.81;100.00
54308;BME280;40208;39.778;2.710;2023-08-30T07:08:48;100460.31;;;17.17;100.00
54308;BME280;40208;39.778;2.710;2023-08-30T07:11:41;100407.16;;;16.65;100.00
54308;BME280;40208;39.778;2.710;2023-08-30T07:14:28;100304.59;;;16.05;100.00
54308;BME280;40208;39.778;2.710;2023-08-30T07:17:14;100283.63;;;15.99;100.00
54308;BME280;40208;39.778;2.710;2023-08-30T07:19:59;100448.31;;;16.88;100.00
54308;BME280;40208;39.778;2.710;2023-08-30T07:22:44;100384.84;;;17.00;100.00
54308;BME280;40208;39.778;2.710;2023-08-30T07:25:31;100631.59;;;18.49;100.00
54308;BME280;40208;39.778;2.710;2023-08-30T07:28:17;100801.91;;;19.27;100.00
54308;BME280;40208;39.778;2.710;2023-08-30T07:31:03;100306.78;;;16.58;100.00
54308;BME280;40208;39.778;2.710;2023-08-30T07:33:48;100352.72;;;16.64;100.00
54308;BME280;40208;39.778;2.710;2023-08-30T07:36:35;100329.81;;;16.60;100.00
54308;BME280;40208;39.778;2.710;2023-08-30T07:39:20;100346.84;;;16.94;100.00
54308;BME280;40208;39.778;2.710;2023-08-30T07:42:11;100345.34;;;16.79;100.00
54308;BME280;40208;39.778;2.710;2023-08-30T07:45:21;100323.38;;;16.74;100.00
54308;BME280;40208;39.778;2.710;2023-08-30T07:48:06;100896.81;;;20.39;100.00
54308;BME280;40208;39.778;2.710;2023-08-30T07:50:51;100850.81;;;20.19;100.00
54308;BME280;40208;39.778;2.710;2023-08-30T07:53:35;100877.28;;;20.46;100.00
54308;BME280;40208;39.778;2.710;2023-08-30T07:56:20;100791.75;;;20.06;100.00
54308;BME280;40208;39.778;2.710;2023-08-30T07:59:05;100892.97;;;20.73;100.00
54308;BME280;40208;39.778;2.710;2023-08-30T08:01:50;100890.47;;;20.82;100.00
54308;BME280;40208;39.778;2.710;2023-08-30T08:04:36;100790.63;;;20.30;100.00
54308;BME280;40208;39.778;2.710;2023-08-30T08:07:21;100794.38;;;20.39;100.00
54308;BME280;40208;39.778;2.710;2023-08-30T08:10:06;100604.34;;;19.30;100.00
54308;BME280;40208;39.778;2.710;2023-08-30T08:12:51;100407.13;;;17.90;100.00
54308;BME280;40208;39.778;2.710;2023-08-30T08:15:36;100701.25;;;20.04;100.00
54308;BME280;40208;39.778;2.710;2023-08-30T08:18:22;100904.34;;;21.29;100.00
54308;BME280;40208;39.778;2.710;2023-08-30T08:21:06;100815.91;;;20.81;100.00
54308;BME280;40208;39.778;2.710;2023-08-30T08:23:51;100839.22;;;21.12;100.00
54308;BME280;40208;39.778;2.710;2023-08-30T08:26:36;100766.03;;;20.65;100.00
54308;BME280;40208;39.778;2.710;2023-08-30T08:29:21;100875.72;;;21.47;100.00
54308;BME280;40208;39.778;2.710;2023-08-30T08:32:06;100415.94;;;18.57;100.00
54308;BME280;40208;39.778;2.710;2023-08-30T08:34:51;100403.91;;;18.40;100.00
54308;BME280;40208;39.778;2.710;2023-08-30T08:37:36;100725.72;;;20.73;100.00
54308;BME280;40208;39.778;2.710;2023-08-30T08:40:21;100804.31;;;20.90;100.00
54308;BME280;40208;39.778;2.710;2023-08-30T08:43:06;100338.44;;;18.41;100.00
54308;BME280;40208;39.778;2.710;2023-08-30T08:45:51;100589.13;;;19.82;100.00
54308;BME280;40208;39.778;2.710;2023-08-30T08:48:40;100469.59;;;19.42;100.00
54308;BME280;40208;39.778;2.710;2023-08-30T08:51:25;100551.31;;;19.62;100.00
54308;BME280;40208;39.778;2.710;2023-08-30T08:54:11;100481.19;;;19.43;100.00
54308;BME280;40208;39.778;2.710;2023-08-30T08:56:57;100890.06;;;22.08;100.00
54308;BME280;40208;39.778;2.710;2023-08-30T08:59:42;100686.16;;;20.74;100.00
54308;BME280;40208;39.778;2.710;2023-08-30T09:02:27;100428.81;;;19.47;100.00
54308;BME280;40208;39.778;2.710;2023-08-30T09:05:13;100383.50;;;19.21;100.00
54308;BME280;40208;39.778;2.710;2023-08-30T09:08:02;100578.28;;;20.33;100.00
54308;BME280;40208;39.778;2.710;2023-08-30T09:10:48;100680.91;;;20.82;100.00
54308;BME280;40208;39.778;2.710;2023-08-30T09:13:35;100833.16;;;22.09;100.00
54308;BME280;40208;39.778;2.710;2023-08-30T09:16:20;100284.56;;;18.84;100.00
54308;BME280;40208;39.778;2.710;2023-08-30T09:19:05;100675.97;;;21.07;100.00
54308;BME280;40208;39.778;2.710;2023-08-30T09:21:58;100583.34;;;20.67;100.00
54308;BME280;40208;39.778;2.710;2023-08-30T09:24:43;100536.47;;;20.49;100.00
54308;BME280;40208;39.778;2.710;2023-08-30T09:27:34;100981.44;;;23.01;100.00
54308;BME280;40208;39.778;2.710;2023-08-30T09:30:22;100402.47;;;19.51;100.00
54308;BME280;40208;39.778;2.710;2023-08-30T09:33:07;100771.28;;;21.96;100.00
54308;BME280;40208;39.778;2.710;2023-08-30T09:35:55;100646.88;;;21.30;100.00
54308;BME280;40208;39.778;2.710;2023-08-30T09:38:48;100735.88;;;21.60;100.00
54308;BME280;40208;39.778;2.710;2023-08-30T09:41:37;100562.22;;;20.92;100.00
54308;BME280;40208;39.778;2.710;2023-08-30T09:51:38;100784.50;;;22.29;100.00
54308;BME280;40208;39.778;2.710;2023-08-30T09:54:25;100957.00;;;23.40;100.00
54308;BME280;40208;39.778;2.710;2023-08-30T09:57:13;100589.78;;;21.25;100.00
54308;BME280;40208;39.778;2.710;2023-08-30T09:59:59;100743.97;;;22.09;100.00
54308;BME280;40208;39.778;2.710;2023-08-30T10:02:44;100880.00;;;23.05;100.00
54308;BME280;40208;39.778;2.710;2023-08-30T10:05:29;100632.13;;;21.53;100.00
54308;BME280;40208;39.778;2.710;2023-08-30T10:08:15;100908.72;;;23.26;100.00
54308;BME280;40208;39.778;2.710;2023-08-30T10:11:01;100814.00;;;22.69;100.00
54308;BME280;40208;39.778;2.710;2023-08-30T10:13:47;100834.75;;;22.88;100.00
54308;BME280;40208;39.778;2.710;2023-08-30T10:16:40;100906.41;;;23.31;100.00
54308;BME280;40208;39.778;2.710;2023-08-30T10:19:27;100847.53;;;22.96;100.00
54308;BME280;40208;39.778;2.710;2023-08-30T10:22:12;100808.69;;;22.77;100.00
54308;BME280;40208;39.778;2.710;2023-08-30T10:25:03;100898.16;;;23.23;100.00
54308;BME280;40208;39.778;2.710;2023-08-30T10:27:49;100846.69;;;22.95;100.00
54308;BME280;40208;39.778;2.710;2023-08-30T10:30:35;100922.19;;;23.45;100.00
54308;BME280;40208;39.778;2.710;2023-08-30T10:33:20;100829.28;;;22.98;100.00
54308;BME280;40208;39.778;2.710;2023-08-30T10:36:10;100713.47;;;22.36;100.00
54308;BME280;40208;39.778;2.710;2023-08-30T10:38:55;100883.59;;;23.34;100.00
54308;BME280;40208;39.778;2.710;2023-08-30T10:41:56;100888.13;;;23.43;100.00
54308;BME280;40208;39.778;2.710;2023-08-30T10:44:50;100967.72;;;23.97;100.00
54308;BME280;40208;39.778;2.710;2023-08-30T10:47:37;100950.66;;;23.87;100.00
54308;BME280;40208;39.778;2.710;2023-08-30T10:50:30;100846.19;;;23.19;100.00
54308;BME280;40208;39.778;2.710;2023-08-30T10:53:15;100974.63;;;24.09;100.00
54308;BME280;40208;39.778;2.710;2023-08-30T10:56:10;100940.06;;;23.94;100.00
54308;BME280;40208;39.778;2.710;2023-08-30T10:58:55;100972.19;;;24.16;100.00
54308;BME280;40208;39.778;2.710;2023-08-30T11:01:40;100957.34;;;24.10;100.00
54308;BME280;40208;39.778;2.710;2023-08-30T11:04:25;100971.53;;;24.22;100.00
54308;BME280;40208;39.778;2.710;2023-08-30T11:07:11;100966.91;;;24.32;100.00
54308;BME280;40208;39.778;2.710;2023-08-30T11:09:57;100912.03;;;24.03;100.00
54308;BME280;40208;39.778;2.710;2023-08-30T11:12:43;100964.03;;;24.34;100.00
54308;BME280;40208;39.778;2.710;2023-08-30T11:15:28;100945.38;;;24.31;100.00
54308;BME280;40208;39.778;2.710;2023-08-30T11:18:13;100864.16;;;23.76;100.00
54308;BME280;40208;39.778;2.710;2023-08-30T11:21:00;100848.31;;;23.71;100.00
54308;BME280;40208;39.778;2.710;2023-08-30T11:23:45;100798.72;;;23.43;100.00
54308;BME280;40208;39.778;2.710;2023-08-30T11:26:30;100972.38;;;24.50;100.00
54308;BME280;40208;39.778;2.710;2023-08-30T11:29:15;100957.09;;;24.49;100.00
54308;BME280;40208;39.778;2.710;2023-08-30T11:32:00;100964.41;;;24.39;100.00
54308;BME280;40208;39.778;2.710;2023-08-30T11:34:55;100721.13;;;23.06;100.00
54308;BME280;40208;39.778;2.710;2023-08-30T11:37:41;100915.38;;;24.15;100.00
54308;BME280;40208;39.778;2.710;2023-08-30T11:40:28;100932.56;;;24.41;100.00
54308;BME280;40208;39.778;2.710;2023-08-30T11:43:13;100930.88;;;24.40;100.00
54308;BME280;40208;39.778;2.710;2023-08-30T11:45:59;100968.72;;;24.60;100.00
54308;BME280;40208;39.778;2.710;2023-08-30T11:48:45;100959.59;;;24.61;100.00
54308;BME280;40208;39.778;2.710;2023-08-30T11:51:31;100921.72;;;24.41;100.00
54308;BME280;40208;39.778;2.710;2023-08-30T11:54:19;100931.19;;;24.55;100.00
54308;BME280;40208;39.778;2.710;2023-08-30T11:57:05;100856.88;;;24.12;100.00
54308;BME280;40208;39.778;2.710;2023-08-30T11:59:50;100926.94;;;24.52;100.00
54308;BME280;40208;39.778;2.710;2023-08-30T12:02:35;100929.66;;;24.52;100.00
54308;BME280;40208;39.778;2.710;2023-08-30T12:05:20;100859.53;;;24.04;100.00
54308;BME280;40208;39.778;2.710;2023-08-30T12:08:06;100766.78;;;23.64;100.00
54308;BME280;40208;39.778;2.710;2023-08-30T12:10:51;100922.25;;;24.63;100.00
54308;BME280;40208;39.778;2.710;2023-08-30T12:13:36;100938.31;;;24.74;100.00
54308;BME280;40208;39.778;2.710;2023-08-30T12:16:21;100926.38;;;24.67;100.00
54308;BME280;40208;39.778;2.710;2023-08-30T12:19:12;100874.22;;;24.37;100.00
54308;BME280;40208;39.778;2.710;2023-08-30T12:22:03;100967.53;;;24.80;100.00
54308;BME280;40208;39.778;2.710;2023-08-30T12:24:48;100842.69;;;24.18;100.00
54308;BME280;40208;39.778;2.710;2023-08-30T12:27:33;100590.97;;;22.54;100.00
54308;BME280;40208;39.778;2.710;2023-08-30T12:30:18;100943.13;;;24.80;100.00
54308;BME280;40208;39.778;2.710;2023-08-30T12:33:03;100781.66;;;23.96;100.00
54308;BME280;40208;39.778;2.710;2023-08-30T12:35:48;100930.28;;;24.90;100.00
54308;BME280;40208;39.778;2.710;2023-08-30T12:38:33;100894.47;;;24.61;100.00
54308;BME280;40208;39.778;2.710;2023-08-30T12:41:18;100862.91;;;24.42;100.00
54308;BME280;40208;39.778;2.710;2023-08-30T12:44:05;100865.84;;;24.48;100.00
54308;BME280;40208;39.778;2.710;2023-08-30T12:46:50;100857.88;;;24.47;100.00
54308;BME280;40208;39.778;2.710;2023-08-30T12:49:35;100930.44;;;24.89;100.00
54308;BME280;40208;39.778;2.710;2023-08-30T12:52:20;100899.31;;;24.75;100.00
54308;BME280;40208;39.778;2.710;2023-08-30T12:55:05;100768.03;;;23.88;100.00
54308;BME280;40208;39.778;2.710;2023-08-30T12:57:49;100749.13;;;23.96;100.00
54308;BME280;40208;39.778;2.710;2023-08-30T13:00:35;100915.03;;;24.89;100.00
54308;BME280;40208;39.778;2.710;2023-08-30T13:03:19;100900.75;;;24.87;100.00
54308;BME280;40208;39.778;2.710;2023-08-30T13:06:04;100809.03;;;24.29;100.00
54308;BME280;40208;39.778;2.710;2023-08-30T13:08:49;100847.78;;;24.57;100.00
54308;BME280;40208;39.778;2.710;2023-08-30T13:11:34;100922.88;;;25.01;100.00
54308;BME280;40208;39.778;2.710;2023-08-30T13:14:21;100819.03;;;24.46;100.00
54308;BME280;40208;39.778;2.710;2023-08-30T13:17:05;100899.97;;;25.03;100.00
54308;BME280;40208;39.778;2.710;2023-08-30T13:19:50;100906.16;;;25.13;100.00
54308;BME280;40208;39.778;2.710;2023-08-30T13:22:35;100856.59;;;24.85;100.00
54308;BME280;40208;39.778;2.710;2023-08-30T13:25:21;100829.41;;;24.77;100.00
54308;BME280;40208;39.778;2.710;2023-08-30T13:28:06;100875.06;;;25.08;100.00
54308;BME280;40208;39.778;2.710;2023-08-30T13:30:50;100732.69;;;24.16;100.00
54308;BME280;40208;39.778;2.710;2023-08-30T13:33:36;100899.56;;;25.16;100.00
54308;BME280;40208;39.778;2.710;2023-08-30T13:36:20;100830.28;;;24.78;100.00
54308;BME280;40208;39.778;2.710;2023-08-30T13:39:05;100898.25;;;25.20;100.00
54308;BME280;40208;39.778;2.710;2023-08-30T13:41:50;100814.09;;;24.68;100.00
54308;BME280;40208;39.778;2.710;2023-08-30T13:44:35;100751.94;;;24.30;100.00
54308;BME280;40208;39.778;2.710;2023-08-30T13:47:21;100762.09;;;24.28;100.00
54308;BME280;40208;39.778;2.710;2023-08-30T13:50:06;100558.78;;;23.14;100.00
54308;BME280;40208;39.778;2.710;2023-08-30T13:52:51;100914.59;;;25.28;100.00
54308;BME280;40208;39.778;2.710;2023-08-30T13:55:36;100860.06;;;24.95;100.00
54308;BME280;40208;39.778;2.710;2023-08-30T13:58:21;100732.41;;;24.27;100.00
54308;BME280;40208;39.778;2.710;2023-08-30T14:01:07;100897.44;;;25.28;100.00
54308;BME280;40208;39.778;2.710;2023-08-30T14:03:52;100897.09;;;25.31;100.00
54308;BME280;40208;39.778;2.710;2023-08-30T14:06:36;100846.13;;;24.90;100.00
54308;BME280;40208;39.778;2.710;2023-08-30T14:09:21;100751.81;;;24.40;100.00
54308;BME280;40208;39.778;2.710;2023-08-30T14:12:06;100911.53;;;25.31;100.00
54308;BME280;40208;39.778;2.710;2023-08-30T14:14:51;100893.69;;;25.29;100.00
54308;BME280;40208;39.778;2.710;2023-08-30T14:17:37;100888.38;;;25.19;100.00
54308;BME280;40208;39.778;2.710;2023-08-30T14:20:22;100859.41;;;25.02;100.00
54308;BME280;40208;39.778;2.710;2023-08-30T14:23:07;100928.53;;;25.33;100.00
54308;BME280;40208;39.778;2.710;2023-08-30T14:25:59;100801.53;;;24.67;100.00